Time;durP1;ratioP1;P1;durP2;ratioP2;P2;SDS_P1;SDS_P2;PMS_P1;PMS_P2;Temp;Humidity;BMP_temperature;BMP_pressure;BME280_temperature;BME280_humidity;BME280_pressure;Samples;Min_cycle;Max_cycle;Signal;HPM_P1;HPM_P2
2021/01/26 00:00:51;;;;;;;17.60;12.50;;;4.60;73.50;;;;;;5004376;28;20061;-60
2021/01/26 00:03:17;;;;;;;19.02;12.90;;;4.70;72.70;;;;;;5002359;28;20036;-58
2021/01/26 00:05:43;;;;;;;19.02;12.80;;;4.70;72.50;;;;;;5006317;28;20025;-59
2021/01/26 00:08:09;;;;;;;18.00;11.93;;;4.80;72.80;;;;;;5002839;28;20529;-58
2021/01/26 00:10:36;;;;;;;17.65;11.48;;;4.80;72.40;;;;;;4994548;28;20030;-58
2021/01/26 00:13:02;;;;;;;16.13;11.73;;;4.80;72.00;;;;;;4991484;28;20034;-60
2021/01/26 00:15:28;;;;;;;14.18;9.82;;;4.80;72.90;;;;;;4993045;28;20066;-58
2021/01/26 00:17:55;;;;;;;15.13;10.77;;;4.80;72.70;;;;;;4996088;28;20492;-62
2021/01/26 00:20:22;;;;;;;17.58;11.93;;;4.70;73.80;;;;;;5003082;28;20054;-62
2021/01/26 00:22:48;;;;;;;17.35;12.13;;;4.80;74.30;;;;;;4998346;28;20089;-61
2021/01/26 00:25:22;;;;;;;19.77;11.45;;;4.90;74.30;;;;;;4990428;28;20037;-60
2021/01/26 00:27:49;;;;;;;17.30;11.82;;;5.00;74.20;;;;;;5004222;28;20104;-52
2021/01/26 00:30:18;;;;;;;16.83;12.20;;;5.00;74.20;;;;;;5011340;28;20026;-54
2021/01/26 00:32:44;;;;;;;15.93;11.45;;;5.00;73.20;;;;;;5011118;28;20100;-55
2021/01/26 00:35:12;;;;;;;19.25;13.27;;;4.90;73.90;;;;;;5010411;28;20129;-54
2021/01/26 00:37:38;;;;;;;20.95;13.82;;;4.90;74.00;;;;;;5010620;28;20049;-54
2021/01/26 00:40:05;;;;;;;22.17;14.02;;;4.90;74.20;;;;;;4992234;28;20135;-49
2021/01/26 00:42:30;;;;;;;19.73;13.68;;;5.00;73.80;;;;;;5001140;28;20038;-56
2021/01/26 00:44:56;;;;;;;19.02;13.07;;;5.00;74.30;;;;;;5009583;28;20372;-55
2021/01/26 00:47:22;;;;;;;17.50;13.43;;;4.90;73.20;;;;;;5004548;28;20049;-56
2021/01/26 00:49:48;;;;;;;20.67;15.38;;;4.80;73.80;;;;;;5001560;28;20042;-55
2021/01/26 00:52:13;;;;;;;20.45;15.18;;;4.70;74.50;;;;;;5009792;28;20030;-56
2021/01/26 00:54:39;;;;;;;19.38;15.18;;;4.70;74.30;;;;;;5005127;28;20034;-52
2021/01/26 00:57:05;;;;;;;24.63;14.50;;;4.50;74.10;;;;;;5008272;28;20026;-54
2021/01/26 00:59:32;;;;;;;22.65;16.08;;;4.40;75.10;;;;;;5002921;28;20494;-55
2021/01/26 01:01:58;;;;;;;23.05;15.30;;;4.50;76.10;;;;;;4994415;28;20030;-55
2021/01/26 01:04:24;;;;;;;21.35;15.32;;;4.50;76.20;;;;;;5013471;28;20030;-55
2021/01/26 01:06:50;;;;;;;19.33;15.15;;;4.50;75.50;;;;;;5004934;28;20049;-54
2021/01/26 01:09:16;;;;;;;19.80;14.82;;;4.50;74.30;;;;;;5006649;28;20034;-52
2021/01/26 01:11:41;;;;;;;20.42;14.23;;;4.40;74.50;;;;;;5005191;28;20033;-53
2021/01/26 01:14:08;;;;;;;19.63;13.35;;;4.40;75.20;;;;;;5004911;28;20155;-55
2021/01/26 01:16:33;;;;;;;17.63;13.55;;;4.50;74.20;;;;;;5008058;28;20049;-53
2021/01/26 01:18:59;;;;;;;18.85;14.07;;;4.40;74.30;;;;;;5004545;28;20034;-51
2021/01/26 01:21:25;;;;;;;18.10;13.68;;;4.30;75.40;;;;;;5005613;28;20049;-55
2021/01/26 01:23:51;;;;;;;19.45;14.10;;;4.40;75.10;;;;;;4982703;28;20113;-54
2021/01/26 01:26:16;;;;;;;18.73;14.00;;;4.40;74.50;;;;;;5004380;28;20031;-54
2021/01/26 01:28:42;;;;;;;19.67;13.90;;;4.40;74.70;;;;;;5009679;28;20525;-51
2021/01/26 01:31:08;;;;;;;20.00;13.85;;;4.40;73.80;;;;;;5013263;28;20374;-55
2021/01/26 01:33:33;;;;;;;19.35;13.73;;;4.40;73.10;;;;;;5013265;28;20026;-52
2021/01/26 01:35:59;;;;;;;17.95;13.23;;;4.30;73.80;;;;;;5009491;28;20467;-53
2021/01/26 01:38:25;;;;;;;20.55;13.30;;;4.30;74.50;;;;;;5000430;28;20030;-54
2021/01/26 01:40:53;;;;;;;16.98;12.57;;;4.40;72.90;;;;;;5004941;28;20505;-51
2021/01/26 01:43:19;;;;;;;19.02;12.68;;;4.30;73.00;;;;;;5010737;28;20030;-55
2021/01/26 01:45:44;;;;;;;16.77;12.15;;;4.30;73.20;;;;;;4988950;28;20038;-56
2021/01/26 01:48:25;;;;;;;16.52;12.23;;;4.30;73.80;;;;;;5009415;28;20045;-53
2021/01/26 01:50:59;;;;;;;16.63;11.90;;;4.40;73.10;;;;;;4994214;28;20034;-52
2021/01/26 01:53:46;;;;;;;14.73;11.23;;;4.50;73.00;;;;;;4995241;28;20518;-52
2021/01/26 01:56:28;;;;;;;17.35;12.43;;;4.50;71.80;;;;;;4988926;28;20521;-53
2021/01/26 01:59:00;;;;;;;15.05;12.05;;;4.60;71.90;;;;;;5002939;28;20061;-56
2021/01/26 02:01:29;;;;;;;16.98;12.95;;;4.70;70.70;;;;;;4998960;28;20451;-53
2021/01/26 02:04:06;;;;;;;16.67;12.75;;;4.60;70.10;;;;;;4980386;28;20363;-53
2021/01/26 02:06:37;;;;;;;20.98;13.90;;;4.60;69.30;;;;;;4979779;28;20038;-56
2021/01/26 02:09:15;;;;;;;17.65;13.38;;;4.50;69.60;;;;;;5011980;28;20030;-57
2021/01/26 02:11:46;;;;;;;19.17;13.80;;;4.60;69.50;;;;;;5011940;28;20038;-53
2021/01/26 02:14:13;;;;;;;18.23;13.95;;;4.70;69.00;;;;;;5011240;28;20026;-54
2021/01/26 02:16:49;;;;;;;19.17;14.45;;;4.70;68.80;;;;;;4991921;28;20042;-56
2021/01/26 02:19:39;;;;;;;18.45;13.70;;;4.70;68.50;;;;;;5011832;28;20080;-57
2021/01/26 02:22:24;;;;;;;16.95;13.38;;;4.70;67.90;;;;;;5005576;28;20521;-55
2021/01/26 02:24:58;;;;;;;19.10;14.43;;;4.70;67.90;;;;;;5012172;28;20033;-54
2021/01/26 02:27:45;;;;;;;21.52;15.85;;;4.60;69.50;;;;;;5012179;28;20038;-54
2021/01/26 02:31:08;;;;;;;21.40;16.52;;;4.50;71.00;;;;;;5001245;28;20041;-57
2021/01/26 02:34:01;;;;;;;25.27;19.17;;;4.40;72.20;;;;;;4971687;28;20035;-57
2021/01/26 02:36:45;;;;;;;26.40;20.38;;;4.30;72.30;;;;;;4982303;28;20172;-55
2021/01/26 02:39:23;;;;;;;26.48;20.58;;;4.20;73.60;;;;;;4971654;28;20526;-53
2021/01/26 02:42:05;;;;;;;27.73;21.27;;;4.20;73.30;;;;;;4985830;28;20066;-54
2021/01/26 02:45:09;;;;;;;28.42;21.77;;;4.20;73.00;;;;;;4973272;28;20042;-51
2021/01/26 02:47:37;;;;;;;27.98;20.98;;;4.20;73.00;;;;;;4946556;28;20050;-52
2021/01/26 02:50:08;;;;;;;25.48;19.98;;;4.20;72.10;;;;;;4985234;28;20479;-54
2021/01/26 02:52:39;;;;;;;25.50;19.55;;;4.30;71.70;;;;;;4980914;28;20116;-57
2021/01/26 02:55:17;;;;;;;25.45;18.42;;;4.20;70.50;;;;;;4971278;28;20047;-56
2021/01/26 02:57:54;;;;;;;25.60;18.23;;;4.20;69.80;;;;;;4984285;28;20068;-55
2021/01/26 03:00:25;;;;;;;23.63;15.85;;;4.30;69.80;;;;;;4988124;28;20130;-53
2021/01/26 03:03:01;;;;;;;20.70;15.68;;;4.30;69.30;;;;;;5006149;28;20040;-54
2021/01/26 03:05:37;;;;;;;25.52;16.48;;;4.20;69.10;;;;;;5009858;28;20069;-56
2021/01/26 03:08:08;;;;;;;21.17;15.68;;;4.20;68.90;;;;;;5011329;28;20030;-56
2021/01/26 03:10:40;;;;;;;24.38;16.80;;;4.20;68.80;;;;;;5006336;28;20052;-55
2021/01/26 03:13:09;;;;;;;20.52;15.38;;;4.30;68.70;;;;;;5011350;28;20033;-56
2021/01/26 03:15:51;;;;;;;22.13;15.32;;;4.40;68.20;;;;;;5007400;28;20065;-55
2021/01/26 03:18:20;;;;;;;21.92;15.15;;;4.40;67.50;;;;;;5007957;28;20038;-56
2021/01/26 03:20:55;;;;;;;21.33;15.68;;;4.40;67.10;;;;;;5009242;28;20053;-56
2021/01/26 03:23:33;;;;;;;19.90;14.30;;;4.50;66.90;;;;;;5011645;28;20068;-52
2021/01/26 03:26:02;;;;;;;18.88;13.73;;;4.60;66.00;;;;;;5011471;28;20426;-53
2021/01/26 03:28:29;;;;;;;19.40;14.25;;;4.60;65.20;;;;;;5010853;28;20034;-51
2021/01/26 03:30:59;;;;;;;16.15;12.65;;;4.60;65.00;;;;;;5011373;28;20100;-50
2021/01/26 03:33:32;;;;;;;17.08;13.35;;;4.60;63.80;;;;;;5011866;28;20100;-52
2021/01/26 03:35:59;;;;;;;16.75;12.50;;;4.60;63.80;;;;;;4998572;28;20054;-51
2021/01/26 03:38:28;;;;;;;15.60;11.70;;;4.70;63.40;;;;;;5008300;28;20037;-55
2021/01/26 03:40:55;;;;;;;15.90;11.57;;;4.60;62.80;;;;;;5002459;28;20482;-52
2021/01/26 03:43:21;;;;;;;15.85;11.50;;;4.50;63.00;;;;;;5011900;28;20029;-53
2021/01/26 03:45:52;;;;;;;16.17;12.63;;;4.50;63.20;;;;;;5012113;28;20037;-55
2021/01/26 03:48:36;;;;;;;17.27;12.80;;;4.50;63.40;;;;;;4994718;28;20040;-51
2021/01/26 03:51:35;;;;;;;19.25;13.07;;;4.60;63.60;;;;;;5011265;28;20037;-54
2021/01/26 03:54:15;;;;;;;15.60;11.98;;;4.70;62.90;;;;;;5011534;28;20042;-54
2021/01/26 03:57:02;;;;;;;16.58;12.45;;;4.60;63.00;;;;;;5009308;28;20418;-52
2021/01/26 04:00:06;;;;;;;16.63;12.32;;;4.60;63.20;;;;;;5011769;28;20030;-54
2021/01/26 04:02:50;;;;;;;17.30;12.20;;;4.50;63.30;;;;;;4989192;28;20168;-53
2021/01/26 04:05:39;;;;;;;14.88;11.20;;;4.40;63.30;;;;;;5010857;28;20045;-54
2021/01/26 04:08:21;;;;;;;14.95;11.43;;;4.40;63.00;;;;;;4991772;28;20080;-54
2021/01/26 04:10:57;;;;;;;15.10;11.63;;;4.30;63.10;;;;;;5011548;28;20033;-51
2021/01/26 04:13:30;;;;;;;15.50;11.23;;;4.30;63.20;;;;;;4994099;28;20034;-52
2021/01/26 04:15:59;;;;;;;16.17;11.77;;;4.30;63.30;;;;;;4990767;28;20159;-55
2021/01/26 04:18:34;;;;;;;16.10;11.38;;;4.20;63.30;;;;;;4993920;28;20438;-54
2021/01/26 04:21:01;;;;;;;18.55;11.32;;;4.20;63.20;;;;;;5010940;28;20053;-54
2021/01/26 04:23:28;;;;;;;16.38;11.27;;;4.10;63.50;;;;;;5011210;28;20030;-54
2021/01/26 04:26:02;;;;;;;15.95;11.60;;;4.10;63.80;;;;;;5010629;28;20113;-54
2021/01/26 04:28:38;;;;;;;16.55;11.40;;;4.00;64.00;;;;;;4995078;28;20117;-54
2021/01/26 04:31:07;;;;;;;16.63;12.13;;;4.00;64.20;;;;;;5012076;28;20041;-53
2021/01/26 04:33:34;;;;;;;19.88;12.13;;;3.90;64.60;;;;;;5015096;28;20034;-54
2021/01/26 04:36:00;;;;;;;18.00;12.43;;;3.90;64.40;;;;;;5013425;28;20390;-55
2021/01/26 04:38:25;;;;;;;19.20;13.80;;;3.80;64.70;;;;;;5013873;28;20063;-54
2021/01/26 04:41:00;;;;;;;19.20;13.10;;;3.70;64.90;;;;;;5015103;28;20535;-57
2021/01/26 04:43:55;;;;;;;22.20;15.80;;;3.80;64.90;;;;;;5014469;28;20037;-54
2021/01/26 04:46:44;;;;;;;22.35;14.10;;;3.70;64.90;;;;;;5003761;28;20241;-54
2021/01/26 04:49:22;;;;;;;20.42;12.65;;;3.70;65.00;;;;;;5014027;28;20121;-53
2021/01/26 04:52:05;;;;;;;18.88;13.05;;;3.70;65.10;;;;;;5014009;28;20030;-52
2021/01/26 04:54:48;;;;;;;19.58;13.68;;;3.70;65.00;;;;;;5014117;28;20034;-54
2021/01/26 04:57:38;;;;;;;21.47;15.33;;;3.70;66.00;;;;;;5013502;28;20040;-56
2021/01/26 05:03:11;;;;;;;25.48;15.43;;;3.60;66.20;;;;;;5010988;28;20045;-55
2021/01/26 05:05:41;;;;;;;24.98;16.77;;;3.60;66.60;;;;;;5015059;28;20038;-54
2021/01/26 05:08:14;;;;;;;20.33;15.98;;;3.50;67.00;;;;;;5013678;28;20172;-54
2021/01/26 05:10:50;;;;;;;25.15;18.23;;;3.40;67.40;;;;;;5012863;28;20033;-53
2021/01/26 05:13:38;;;;;;;25.23;18.15;;;3.30;67.70;;;;;;5013693;28;20045;-55
2021/01/26 05:16:27;;;;;;;24.60;17.90;;;3.30;67.90;;;;;;5011873;28;20068;-54
2021/01/26 05:19:06;;;;;;;26.27;18.10;;;3.20;68.20;;;;;;4996141;28;20045;-51
2021/01/26 05:21:32;;;;;;;24.20;18.67;;;3.30;68.10;;;;;;4996325;28;20096;-52
2021/01/26 05:24:07;;;;;;;25.65;18.48;;;3.20;67.90;;;;;;5013328;28;20477;-51
2021/01/26 05:26:33;;;;;;;25.25;18.58;;;3.20;67.90;;;;;;5011720;28;20120;-56
2021/01/26 05:28:58;;;;;;;25.45;19.15;;;3.20;68.00;;;;;;5012254;28;20113;-56
2021/01/26 05:31:28;;;;;;;25.27;18.75;;;3.10;68.20;;;;;;4998127;28;20029;-57
2021/01/26 05:34:02;;;;;;;28.33;20.33;;;3.10;68.50;;;;;;5003812;28;20018;-54
2021/01/26 05:36:28;;;;;;;30.42;19.85;;;3.10;68.40;;;;;;4994036;28;20521;-55
2021/01/26 05:38:53;;;;;;;27.50;20.42;;;3.20;68.50;;;;;;5007965;28;20105;-52
2021/01/26 05:41:20;;;;;;;26.73;18.88;;;3.20;68.40;;;;;;5011996;28;20490;-53
2021/01/26 05:43:46;;;;;;;28.35;19.75;;;3.20;68.30;;;;;;5013141;28;20021;-53
2021/01/26 05:46:31;;;;;;;29.67;20.27;;;3.20;68.40;;;;;;5012503;28;20056;-53
2021/01/26 05:48:57;;;;;;;27.73;20.55;;;3.10;68.70;;;;;;5012736;28;20042;-52
2021/01/26 05:51:25;;;;;;;25.73;18.77;;;3.10;68.60;;;;;;5013844;28;20022;-56
2021/01/26 05:53:54;;;;;;;27.80;21.23;;;3.20;68.50;;;;;;5012011;28;20109;-55
2021/01/26 05:56:20;;;;;;;27.50;19.50;;;3.20;68.70;;;;;;5012745;28;20354;-58
2021/01/26 05:58:47;;;;;;;28.52;20.77;;;3.10;68.70;;;;;;5013343;28;20077;-54
2021/01/26 06:01:25;;;;;;;32.60;21.33;;;3.20;68.80;;;;;;5012604;28;20026;-55
2021/01/26 06:04:09;;;;;;;31.60;21.27;;;3.20;68.50;;;;;;5012479;28;20029;-54
2021/01/26 06:06:54;;;;;;;27.77;19.92;;;3.30;68.20;;;;;;5013622;28;20188;-55
2021/01/26 06:09:37;;;;;;;28.75;20.63;;;3.30;67.90;;;;;;4992498;28;20030;-54
2021/01/26 06:12:07;;;;;;;29.52;20.95;;;3.30;68.00;;;;;;5012628;28;20030;-54
2021/01/26 06:14:34;;;;;;;28.33;20.95;;;3.30;68.00;;;;;;4994720;28;20036;-53
2021/01/26 06:17:07;;;;;;;30.17;20.70;;;3.30;68.00;;;;;;5011707;28;20080;-53
2021/01/26 06:19:33;;;;;;;29.88;20.17;;;3.30;67.80;;;;;;4992217;28;20108;-52
2021/01/26 06:21:59;;;;;;;27.77;19.95;;;3.40;67.70;;;;;;5011218;28;20033;-54
2021/01/26 06:24:27;;;;;;;28.98;21.30;;;3.30;67.60;;;;;;5013279;28;20033;-52
2021/01/26 06:27:33;;;;;;;28.48;21.00;;;3.30;67.90;;;;;;5010751;28;20038;-57
2021/01/26 06:30:24;;;;;;;30.58;20.75;;;3.30;67.90;;;;;;5012149;28;20034;-54
2021/01/26 06:33:09;;;;;;;27.73;20.60;;;3.30;67.60;;;;;;5011997;28;20359;-56
2021/01/26 06:35:46;;;;;;;29.02;20.83;;;3.40;67.50;;;;;;4986358;28;20522;-55
2021/01/26 06:38:15;;;;;;;27.92;20.55;;;3.50;67.20;;;;;;5000353;28;20206;-55
2021/01/26 06:40:57;;;;;;;31.90;21.50;;;3.50;67.20;;;;;;5005355;28;20037;-54
2021/01/26 06:43:40;;;;;;;27.80;20.73;;;3.40;67.60;;;;;;4989578;28;20493;-54
2021/01/26 06:46:15;;;;;;;28.95;21.00;;;3.40;67.60;;;;;;5002944;28;20484;-52
2021/01/26 06:49:14;;;;;;;29.52;21.45;;;3.30;67.70;;;;;;5000676;28;20064;-54
2021/01/26 06:52:05;;;;;;;31.58;22.30;;;3.30;67.90;;;;;;5003054;28;20029;-57
2021/01/26 06:55:02;;;;;;;31.02;22.00;;;3.40;67.80;;;;;;5011548;28;20026;-54
2021/01/26 06:57:39;;;;;;;32.85;21.73;;;3.40;67.80;;;;;;4994110;28;20042;-57
2021/01/26 07:00:42;;;;;;;32.50;22.02;;;3.50;67.50;;;;;;4991842;28;20061;-56
2021/01/26 07:03:17;;;;;;;30.65;22.60;;;3.60;67.20;;;;;;5009133;28;20117;-52
2021/01/26 07:06:20;;;;;;;46.00;27.20;;;3.70;66.90;;;;;;5006702;28;20041;-52
2021/01/26 07:09:01;;;;;;;35.35;24.48;;;3.70;66.50;;;;;;5007277;28;20478;-54
2021/01/26 07:11:46;;;;;;;32.38;23.40;;;3.80;66.40;;;;;;4988084;28;20389;-56
2021/01/26 07:14:30;;;;;;;31.60;23.17;;;3.80;66.10;;;;;;4985313;28;20085;-56
2021/01/26 07:17:01;;;;;;;32.72;21.40;;;3.90;65.60;;;;;;5000521;28;20041;-55
2021/01/26 07:19:37;;;;;;;28.92;21.60;;;3.80;66.40;;;;;;5001002;28;20038;-53
2021/01/26 07:22:33;;;;;;;30.48;22.10;;;3.80;65.90;;;;;;5013357;28;20034;-54
2021/01/26 07:25:14;;;;;;;28.02;20.00;;;3.80;65.70;;;;;;5002145;28;20048;-56
2021/01/26 07:27:51;;;;;;;29.58;21.65;;;3.70;65.70;;;;;;5003652;28;20030;-55
2021/01/26 07:30:25;;;;;;;28.00;19.73;;;3.70;65.80;;;;;;4985415;28;20117;-55
2021/01/26 07:33:10;;;;;;;33.40;21.77;;;3.90;65.40;;;;;;4967980;28;20026;-56
2021/01/26 07:36:19;;;;;;;29.65;21.45;;;3.90;65.40;;;;;;4999410;28;20505;-53
2021/01/26 07:38:54;;;;;;;31.13;22.90;;;4.00;65.20;;;;;;5000948;28;20030;-60
2021/01/26 07:41:26;;;;;;;32.28;22.05;;;4.10;64.70;;;;;;5001247;28;20342;-55
2021/01/26 07:44:09;;;;;;;33.25;22.90;;;4.00;64.90;;;;;;5000308;28;20034;-54
2021/01/26 07:47:11;;;;;;;32.72;22.73;;;4.00;65.10;;;;;;5002395;28;20115;-52
2021/01/26 07:49:54;;;;;;;33.53;23.42;;;3.90;65.20;;;;;;5009084;28;20030;-54
2021/01/26 07:52:21;;;;;;;32.20;23.40;;;3.80;65.70;;;;;;5010242;28;20030;-50
2021/01/26 07:55:26;;;;;;;33.08;25.95;;;3.80;65.70;;;;;;5010537;28;20394;-56
2021/01/26 07:58:05;;;;;;;37.08;27.50;;;4.40;65.60;;;;;;5010790;28;20026;-54
2021/01/26 08:00:43;;;;;;;26.33;23.58;;;7.10;57.70;;;;;;5007754;28;20430;-57
2021/01/26 08:03:09;;;;;;;31.90;25.73;;;9.70;49.60;;;;;;5001136;28;20141;-54
2021/01/26 08:05:47;;;;;;;29.20;24.98;;;11.20;44.80;;;;;;5009496;28;20069;-58
2021/01/26 08:08:28;;;;;;;33.13;29.65;;;12.10;42.10;;;;;;5008389;28;20030;-55
2021/01/26 08:11:18;;;;;;;31.15;27.85;;;12.10;40.10;;;;;;4993635;28;20173;-54
2021/01/26 08:14:04;;;;;;;27.48;20.63;;;11.60;40.40;;;;;;4984624;28;20367;-55
2021/01/26 08:16:36;;;;;;;25.33;19.52;;;10.40;42.40;;;;;;4986699;28;20433;-54
2021/01/26 08:19:18;;;;;;;26.85;20.45;;;9.00;46.20;;;;;;4987478;28;20490;-53
2021/01/26 08:21:46;;;;;;;24.85;18.63;;;7.90;49.30;;;;;;4999662;28;20585;-54
2021/01/26 08:24:15;;;;;;;28.35;20.58;;;7.20;52.10;;;;;;5004272;28;20120;-54
2021/01/26 08:26:41;;;;;;;26.73;20.52;;;6.80;53.00;;;;;;5006796;28;20089;-53
2021/01/26 08:29:08;;;;;;;28.23;21.45;;;6.40;54.70;;;;;;5010560;28;20076;-55
2021/01/26 08:31:39;;;;;;;29.33;21.90;;;6.10;55.90;;;;;;5005318;28;20030;-53
2021/01/26 08:34:23;;;;;;;30.63;22.15;;;6.10;56.50;;;;;;5005000;28;20178;-54
2021/01/26 08:37:08;;;;;;;28.25;21.05;;;5.90;57.00;;;;;;5006303;28;20433;-56
2021/01/26 08:39:38;;;;;;;31.13;22.90;;;5.70;57.80;;;;;;5005182;28;20037;-55
2021/01/26 08:42:08;;;;;;;31.88;23.65;;;5.60;58.50;;;;;;5004417;28;20033;-50
2021/01/26 08:44:36;;;;;;;29.50;21.77;;;5.60;58.80;;;;;;4991319;28;20101;-54
2021/01/26 08:47:41;;;;;;;29.90;22.65;;;5.60;58.60;;;;;;5005909;28;20037;-56
2021/01/26 08:50:17;;;;;;;28.98;20.83;;;5.70;58.40;;;;;;4973061;28;20128;-53
2021/01/26 08:52:42;;;;;;;29.52;22.30;;;5.80;58.30;;;;;;5004048;28;20061;-54
2021/01/26 08:55:09;;;;;;;30.58;21.40;;;5.90;57.80;;;;;;5005223;28;20108;-54
2021/01/26 08:57:34;;;;;;;26.35;19.80;;;5.90;57.00;;;;;;5004224;28;20041;-54
2021/01/26 09:00:12;;;;;;;27.08;18.73;;;5.90;56.60;;;;;;5005855;28;20034;-56
2021/01/26 09:02:40;;;;;;;25.75;19.42;;;5.80;56.40;;;;;;5005795;28;20041;-51
2021/01/26 09:05:07;;;;;;;24.58;17.45;;;5.70;56.30;;;;;;5005070;28;20030;-54
2021/01/26 09:07:53;;;;;;;23.38;16.70;;;5.70;56.20;;;;;;5004424;28;20057;-55
2021/01/26 09:10:38;;;;;;;21.42;15.90;;;5.70;56.40;;;;;;5004650;28;20038;-56
2021/01/26 09:13:14;;;;;;;21.83;16.85;;;5.80;55.80;;;;;;5006488;28;20050;-56
2021/01/26 09:15:54;;;;;;;20.88;14.95;;;5.90;55.20;;;;;;4988532;28;20486;-55
2021/01/26 09:18:23;;;;;;;20.13;16.02;;;6.00;54.30;;;;;;5006333;28;20048;-56
2021/01/26 09:21:06;;;;;;;21.55;14.80;;;6.00;54.30;;;;;;4989074;28;20494;-54
2021/01/26 09:23:32;;;;;;;20.50;14.13;;;6.00;53.60;;;;;;5010974;28;20034;-54
2021/01/26 09:25:58;;;;;;;16.55;12.63;;;5.80;53.90;;;;;;5009042;28;20397;-54
2021/01/26 09:28:24;;;;;;;19.65;13.60;;;5.60;53.10;;;;;;5007431;28;20042;-55
2021/01/26 09:30:59;;;;;;;18.60;12.73;;;5.50;53.90;;;;;;5009379;28;20110;-53
2021/01/26 09:33:29;;;;;;;16.27;12.38;;;5.50;54.10;;;;;;5008259;28;20027;-50
2021/01/26 09:36:12;;;;;;;19.33;13.57;;;5.60;53.30;;;;;;4993096;28;20474;-55
2021/01/26 09:38:41;;;;;;;16.88;12.38;;;5.70;53.20;;;;;;5004271;28;20085;-57
2021/01/26 09:41:16;;;;;;;20.20;12.90;;;5.80;52.90;;;;;;5008985;28;20248;-56
2021/01/26 09:43:45;;;;;;;20.15;13.52;;;5.80;52.30;;;;;;4997858;28;20097;-56
2021/01/26 09:46:35;;;;;;;22.52;12.35;;;5.90;52.30;;;;;;5009642;28;20092;-55
2021/01/26 09:49:09;;;;;;;20.05;14.48;;;6.00;51.90;;;;;;4994125;28;20058;-55
2021/01/26 09:52:14;;;;;;;17.70;13.18;;;6.20;51.70;;;;;;5011914;28;20450;-57
2021/01/26 09:54:41;;;;;;;17.83;13.80;;;6.50;50.60;;;;;;5004926;28;20054;-55
2021/01/26 09:57:14;;;;;;;18.67;14.15;;;6.50;50.60;;;;;;4989379;28;20209;-54
2021/01/26 09:59:40;;;;;;;22.73;15.15;;;6.60;50.90;;;;;;5008058;28;20462;-52
2021/01/26 10:02:10;;;;;;;19.70;14.48;;;6.90;50.00;;;;;;4992283;28;20097;-55
2021/01/26 10:04:39;;;;;;;18.50;13.32;;;7.00;49.60;;;;;;5006729;28;20107;-51
2021/01/26 10:07:07;;;;;;;20.70;14.55;;;7.00;49.10;;;;;;5010482;28;20029;-53
2021/01/26 10:09:40;;;;;;;22.70;15.77;;;6.70;50.30;;;;;;5010989;28;20506;-52
2021/01/26 10:12:44;;;;;;;19.70;14.52;;;6.80;50.50;;;;;;5007624;28;20030;-54
2021/01/26 10:15:23;;;;;;;21.05;14.27;;;6.60;50.10;;;;;;5009477;28;20537;-55
2021/01/26 10:18:08;;;;;;;22.60;15.57;;;6.90;50.20;;;;;;5006871;28;20108;-55
2021/01/26 10:20:45;;;;;;;18.67;14.23;;;7.10;49.50;;;;;;5003303;28;20054;-55
2021/01/26 10:23:31;;;;;;;22.00;14.85;;;7.20;48.40;;;;;;5005398;28;20018;-55
2021/01/26 10:26:11;;;;;;;21.60;14.68;;;7.10;49.10;;;;;;4993415;28;20133;-56
2021/01/26 10:29:06;;;;;;;21.98;14.85;;;7.10;49.20;;;;;;5002024;28;20027;-55
2021/01/26 10:31:47;;;;;;;20.85;15.07;;;7.20;49.80;;;;;;4993231;28;20091;-55
2021/01/26 10:34:31;;;;;;;19.10;14.77;;;7.00;50.50;;;;;;5004724;28;20018;-56
2021/01/26 10:37:23;;;;;;;20.63;13.80;;;6.90;50.50;;;;;;5002143;28;20030;-54
2021/01/26 10:40:16;;;;;;;20.60;15.48;;;6.60;51.30;;;;;;4999044;28;20026;-55
2021/01/26 10:42:57;;;;;;;20.95;14.15;;;6.50;52.10;;;;;;4995329;28;20041;-54
2021/01/26 10:45:43;;;;;;;21.17;14.93;;;6.70;50.90;;;;;;5009134;28;20075;-54
2021/01/26 10:48:21;;;;;;;18.35;14.18;;;6.90;50.40;;;;;;5007507;28;20532;-51
2021/01/26 10:50:47;;;;;;;23.55;14.05;;;7.10;49.70;;;;;;5005920;28;20044;-53
2021/01/26 10:53:34;;;;;;;22.77;14.52;;;7.00;50.10;;;;;;4998715;28;20642;-55
2021/01/26 10:56:01;;;;;;;18.13;12.77;;;7.20;49.70;;;;;;4976830;28;20030;-52
2021/01/26 10:58:27;;;;;;;19.58;13.20;;;7.10;49.00;;;;;;4972529;28;20026;-57
2021/01/26 11:00:53;;;;;;;20.42;12.27;;;7.20;49.10;;;;;;5003173;28;20025;-53
2021/01/26 11:03:19;;;;;;;16.52;11.20;;;7.40;47.80;;;;;;4985857;28;20040;-54
2021/01/26 11:05:45;;;;;;;16.23;11.55;;;7.50;47.70;;;;;;5005052;28;20109;-56
2021/01/26 11:08:11;;;;;;;13.77;9.77;;;7.40;48.00;;;;;;5005330;28;20109;-55
2021/01/26 11:10:37;;;;;;;13.90;10.10;;;7.00;48.20;;;;;;4998403;28;20025;-53
2021/01/26 11:13:04;;;;;;;14.73;11.80;;;6.90;49.30;;;;;;5001022;28;20104;-52
2021/01/26 11:15:30;;;;;;;14.75;11.40;;;7.10;49.20;;;;;;4993042;28;20479;-56
2021/01/26 11:17:56;;;;;;;15.52;11.13;;;7.40;48.40;;;;;;5002603;28;20041;-54
2021/01/26 11:20:22;;;;;;;16.13;11.40;;;7.40;48.70;;;;;;5006144;28;20045;-54
2021/01/26 11:22:48;;;;;;;18.08;11.82;;;7.20;48.80;;;;;;4984811;28;20105;-54
2021/01/26 11:25:15;;;;;;;15.80;11.77;;;7.10;49.90;;;;;;4994943;28;20029;-54
2021/01/26 11:27:41;;;;;;;15.75;12.30;;;6.70;50.70;;;;;;4982502;28;21178;-54
2021/01/26 11:30:09;;;;;;;19.25;12.40;;;6.60;51.20;;;;;;4998931;28;20025;-56
2021/01/26 11:32:35;;;;;;;16.60;12.05;;;6.50;51.90;;;;;;5003361;28;20122;-55
2021/01/26 11:35:03;;;;;;;14.45;10.93;;;6.60;51.70;;;;;;4973986;28;20068;-54
2021/01/26 11:37:28;;;;;;;17.98;11.90;;;6.70;51.80;;;;;;4995124;28;20467;-51
2021/01/26 11:39:54;;;;;;;14.88;11.30;;;6.60;51.80;;;;;;4999752;28;20033;-53
2021/01/26 11:42:19;;;;;;;14.80;11.02;;;6.60;51.90;;;;;;5003716;28;20394;-52
2021/01/26 11:44:45;;;;;;;18.20;11.60;;;6.70;52.10;;;;;;4999819;28;20054;-53
2021/01/26 11:47:11;;;;;;;21.58;10.90;;;6.60;52.20;;;;;;5001283;28;20066;-58
2021/01/26 11:49:37;;;;;;;14.68;10.65;;;6.70;52.30;;;;;;4996043;28;20068;-54
2021/01/26 11:52:03;;;;;;;15.48;10.13;;;6.90;52.10;;;;;;4977788;28;20034;-57
2021/01/26 11:54:28;;;;;;;13.10;9.15;;;6.90;52.10;;;;;;4997257;28;20459;-55
2021/01/26 11:56:54;;;;;;;15.85;8.38;;;6.80;51.90;;;;;;4992614;28;20470;-56
2021/01/26 11:59:19;;;;;;;10.68;8.07;;;6.70;52.50;;;;;;4997096;28;20383;-54
2021/01/26 12:01:45;;;;;;;11.98;8.63;;;6.70;52.50;;;;;;4996230;28;20442;-55
2021/01/26 12:04:11;;;;;;;14.23;8.20;;;6.80;52.60;;;;;;5006299;28;20030;-57
2021/01/26 12:06:37;;;;;;;14.02;8.70;;;7.00;52.00;;;;;;5003552;28;20033;-56
2021/01/26 12:09:04;;;;;;;11.48;7.75;;;7.00;51.60;;;;;;5003227;28;20029;-56
2021/01/26 12:11:29;;;;;;;12.07;7.75;;;7.00;51.60;;;;;;4990421;28;20038;-55
2021/01/26 12:13:55;;;;;;;11.80;8.48;;;7.00;51.60;;;;;;4998984;28;20053;-55
2021/01/26 12:16:21;;;;;;;10.88;7.95;;;7.10;51.90;;;;;;5002437;28;20038;-54
2021/01/26 12:18:47;;;;;;;10.80;7.40;;;7.20;51.30;;;;;;4997215;28;20038;-54
2021/01/26 12:21:13;;;;;;;9.73;7.38;;;7.30;51.00;;;;;;4999411;28;20125;-56
2021/01/26 12:23:39;;;;;;;10.68;7.20;;;7.30;51.20;;;;;;5000283;28;20533;-56
2021/01/26 12:26:07;;;;;;;11.10;7.00;;;7.20;50.60;;;;;;4998353;28;20034;-57
2021/01/26 12:28:33;;;;;;;8.95;6.40;;;7.20;50.90;;;;;;4984709;28;20113;-51
2021/01/26 12:30:59;;;;;;;12.38;6.68;;;7.00;51.40;;;;;;4977975;28;20112;-53
2021/01/26 12:33:24;;;;;;;10.80;6.80;;;7.00;51.30;;;;;;4989185;28;20033;-57
2021/01/26 12:35:52;;;;;;;9.00;6.22;;;7.00;51.50;;;;;;4992086;28;20034;-56
2021/01/26 12:38:18;;;;;;;8.82;6.20;;;6.80;52.00;;;;;;4989395;28;20033;-58
2021/01/26 12:40:44;;;;;;;9.23;6.43;;;6.80;52.40;;;;;;5001727;28;20034;-54
2021/01/26 12:43:10;;;;;;;9.65;6.18;;;6.90;52.40;;;;;;5004749;28;20030;-55
2021/01/26 12:45:36;;;;;;;7.63;5.88;;;6.90;52.40;;;;;;5007317;28;20343;-49
2021/01/26 12:48:03;;;;;;;8.52;6.43;;;6.70;53.30;;;;;;5005955;28;20030;-53
2021/01/26 12:50:33;;;;;;;11.65;6.60;;;6.70;53.50;;;;;;5005280;28;20033;-50
2021/01/26 12:52:58;;;;;;;8.05;6.10;;;6.50;54.10;;;;;;4981009;28;20037;-52
2021/01/26 12:55:24;;;;;;;13.32;6.68;;;6.40;54.80;;;;;;4995408;28;20085;-54
2021/01/26 12:57:51;;;;;;;8.38;6.28;;;6.40;55.00;;;;;;4989461;28;20030;-52
2021/01/26 13:00:20;;;;;;;9.10;5.70;;;6.50;54.80;;;;;;5005159;28;20363;-56
2021/01/26 13:02:47;;;;;;;8.00;6.20;;;6.50;55.30;;;;;;4994581;28;20204;-53
2021/01/26 13:05:14;;;;;;;8.10;5.60;;;6.30;55.50;;;;;;5002791;28;20037;-54
2021/01/26 13:07:40;;;;;;;8.43;5.75;;;6.40;55.50;;;;;;5006091;28;20026;-55
2021/01/26 13:10:07;;;;;;;7.65;6.00;;;6.60;55.00;;;;;;4999798;28;20383;-57
2021/01/26 13:12:33;;;;;;;8.88;5.55;;;6.50;55.40;;;;;;5005305;28;20033;-55
2021/01/26 13:14:59;;;;;;;7.50;5.28;;;6.50;55.70;;;;;;4982317;28;20167;-60